Hyde Park, Vermont
Current Conditions -  °F | °C
As of 3:51 PM on Tuesday 25 Nov 2014 (Local Time) from KMPV Reporting Station
Few Clouds Few Clouds  
Wind Chill: 42°   Ceiling: Unl
Heat Index: 44°   Visibility: 10mi
Dew Point: 23°   Wind: 5mph
Humidity: 43%   Direction: NA
Pressure: 29.94"   Gusts: 22mph
Location:  44.59°N, 72.62°W
Report Text: KMPV 252051Z AUTO VRB04G19KT 10SM FEW055 07/M05 A2994 RMK AO2 SLP143 T00671050 53022
Loading
Personal Weather Stations






























Interactive Weather Map New forecast layout! Learn more

10-Day Weather Forecast

Advertisements
Track Severe Weather on mobile